Time;durP1;ratioP1;P1;durP2;ratioP2;P2;SDS_P1;SDS_P2;PMS_P1;PMS_P2;Temp;Humidity;BMP_temperature;BMP_pressure;BME280_temperature;BME280_humidity;BME280_pressure;Samples;Min_cycle;Max_cycle;Signal;HPM_P1;HPM_P2
2023/07/15 00:00:13;;;;;;;8.68;4.13;;;;;;;;;;4989188;28;20023;-49
2023/07/15 00:02:41;;;;;;;13.30;4.50;;;;;;;;;;4995505;28;20034;-50
2023/07/15 00:05:25;;;;;;;9.23;4.20;;;;;;;;;;4997057;28;20027;-53
2023/07/15 00:07:51;;;;;;;10.05;4.53;;;;;;;;;;4994746;28;20089;-53
2023/07/15 00:10:16;;;;;;;7.82;4.13;;;;;;;;;;4990869;28;20390;-51
2023/07/15 00:12:42;;;;;;;6.95;4.10;;;;;;;;;;4991918;28;20169;-48
2023/07/15 00:15:11;;;;;;;8.75;4.85;;;;;;;;;;4974463;28;20050;-51
2023/07/15 00:17:37;;;;;;;11.18;4.85;;;;;;;;;;4968827;28;20095;-48
2023/07/15 00:20:07;;;;;;;6.85;4.40;;;;;;;;;;4975098;28;20023;-52
2023/07/15 00:22:32;;;;;;;7.95;4.13;;;;;;;;;;4975077;28;20043;-52
2023/07/15 00:24:58;;;;;;;6.40;4.18;;;;;;;;;;4957957;28;20027;-50
2023/07/15 00:27:24;;;;;;;7.25;4.93;;;;;;;;;;4977536;28;20031;-50
2023/07/15 00:29:50;;;;;;;5.63;4.38;;;;;;;;;;4977325;28;20451;-48
2023/07/15 00:32:16;;;;;;;6.82;3.88;;;;;;;;;;4972397;28;20039;-50
2023/07/15 00:34:42;;;;;;;8.35;4.18;;;;;;;;;;4976460;28;20062;-50
2023/07/15 00:37:07;;;;;;;7.97;3.60;;;;;;;;;;4971427;28;20384;-50
2023/07/15 00:39:33;;;;;;;6.65;3.85;;;;;;;;;;4974087;28;20126;-51
2023/07/15 00:42:05;;;;;;;6.53;4.25;;;;;;;;;;4977367;28;20026;-48
2023/07/15 00:44:31;;;;;;;5.05;3.45;;;;;;;;;;4959542;28;20106;-53
2023/07/15 00:47:31;;;;;;;7.10;3.67;;;;;;;;;;4968484;28;20486;-50
2023/07/15 00:49:57;;;;;;;5.40;3.38;;;;;;;;;;4983733;28;20065;-48
2023/07/15 00:52:22;;;;;;;12.55;4.25;;;;;;;;;;4988355;28;20041;-48
2023/07/15 00:54:52;;;;;;;5.50;3.15;;;;;;;;;;4991408;28;20239;-48
2023/07/15 00:57:20;;;;;;;11.55;3.67;;;;;;;;;;4997776;28;20049;-50
2023/07/15 00:59:47;;;;;;;4.88;3.10;;;;;;;;;;4989949;28;20485;-50
2023/07/15 01:02:13;;;;;;;7.13;3.45;;;;;;;;;;4992833;28;20023;-50
2023/07/15 01:04:39;;;;;;;12.68;3.65;;;;;;;;;;4996079;28;20113;-50
2023/07/15 01:07:05;;;;;;;4.03;3.20;;;;;;;;;;4982026;28;20030;-49
2023/07/15 01:09:31;;;;;;;6.22;3.15;;;;;;;;;;5001138;28;20039;-51
2023/07/15 01:11:56;;;;;;;6.47;3.15;;;;;;;;;;4996373;28;20033;-50
2023/07/15 01:14:22;;;;;;;4.65;3.47;;;;;;;;;;4983553;28;20136;-49
2023/07/15 01:16:47;;;;;;;8.30;3.58;;;;;;;;;;4986902;28;20086;-49
2023/07/15 01:19:18;;;;;;;4.60;3.15;;;;;;;;;;4979502;28;20632;-51
2023/07/15 01:21:51;;;;;;;4.45;3.03;;;;;;;;;;4993168;28;20030;-49
2023/07/15 01:24:19;;;;;;;5.95;2.85;;;;;;;;;;4994927;28;20038;-51
2023/07/15 01:26:44;;;;;;;9.00;2.83;;;;;;;;;;4989502;28;20042;-49
2023/07/15 01:29:10;;;;;;;3.15;2.75;;;;;;;;;;5002660;28;20496;-50
2023/07/15 01:31:36;;;;;;;7.35;3.08;;;;;;;;;;5009933;28;20032;-53
2023/07/15 01:34:01;;;;;;;5.28;2.90;;;;;;;;;;4995937;28;20050;-49
2023/07/15 01:36:28;;;;;;;6.00;2.78;;;;;;;;;;4991199;28;20030;-48
2023/07/15 01:38:53;;;;;;;5.45;3.15;;;;;;;;;;4971377;28;20038;-51
2023/07/15 01:41:18;;;;;;;4.80;3.05;;;;;;;;;;4989552;28;20040;-50
2023/07/15 01:43:44;;;;;;;10.35;3.08;;;;;;;;;;4995606;28;20041;-49
2023/07/15 01:46:10;;;;;;;9.73;2.95;;;;;;;;;;4992127;28;20034;-51
2023/07/15 01:48:36;;;;;;;7.85;3.47;;;;;;;;;;4983096;28;20137;-51
2023/07/15 01:51:01;;;;;;;6.50;2.90;;;;;;;;;;4992336;28;20019;-52
2023/07/15 01:53:26;;;;;;;5.97;3.08;;;;;;;;;;4990941;28;20043;-52
2023/07/15 01:55:52;;;;;;;8.25;3.25;;;;;;;;;;4997164;28;20504;-49
2023/07/15 01:58:17;;;;;;;7.90;3.00;;;;;;;;;;4990605;28;20515;-51
2023/07/15 02:00:43;;;;;;;3.38;2.63;;;;;;;;;;4993947;28;20030;-51
2023/07/15 02:03:09;;;;;;;6.63;2.92;;;;;;;;;;4994002;28;20321;-51
2023/07/15 02:05:35;;;;;;;3.50;2.55;;;;;;;;;;4994836;28;20026;-51
2023/07/15 02:08:00;;;;;;;3.80;2.90;;;;;;;;;;4994820;28;20041;-51
2023/07/15 02:10:29;;;;;;;3.97;2.53;;;;;;;;;;4989859;28;20472;-52
2023/07/15 02:12:55;;;;;;;8.05;3.05;;;;;;;;;;4992749;28;20185;-50
2023/07/15 02:15:20;;;;;;;3.65;2.38;;;;;;;;;;4996451;28;20061;-52
2023/07/15 02:17:46;;;;;;;3.60;2.60;;;;;;;;;;4994136;28;20541;-51
2023/07/15 02:20:12;;;;;;;4.57;2.42;;;;;;;;;;4992980;28;20030;-50
2023/07/15 02:22:38;;;;;;;4.32;2.63;;;;;;;;;;4986651;28;20035;-52
2023/07/15 02:25:04;;;;;;;6.03;2.40;;;;;;;;;;5008935;28;20373;-51
2023/07/15 02:27:30;;;;;;;3.30;2.53;;;;;;;;;;4996511;28;20022;-48
2023/07/15 02:29:55;;;;;;;8.88;2.47;;;;;;;;;;4991423;28;20041;-53
2023/07/15 02:32:35;;;;;;;7.20;2.40;;;;;;;;;;4992408;28;20380;-50
2023/07/15 02:35:01;;;;;;;5.68;2.65;;;;;;;;;;4992304;28;20050;-51
2023/07/15 02:37:27;;;;;;;5.63;2.80;;;;;;;;;;4994367;28;20030;-48
2023/07/15 02:39:52;;;;;;;10.63;2.70;;;;;;;;;;4976464;28;20045;-50
2023/07/15 02:42:17;;;;;;;6.93;2.72;;;;;;;;;;4993868;28;20085;-52
2023/07/15 02:44:43;;;;;;;3.95;2.33;;;;;;;;;;4993438;28;20030;-52
2023/07/15 02:47:08;;;;;;;3.95;2.20;;;;;;;;;;4995489;28;20097;-49
2023/07/15 02:49:34;;;;;;;2.90;2.17;;;;;;;;;;4990456;28;20640;-47
2023/07/15 02:51:59;;;;;;;5.60;2.20;;;;;;;;;;4983349;28;20567;-50
2023/07/15 02:54:24;;;;;;;5.82;2.50;;;;;;;;;;4990523;28;20812;-48
2023/07/15 02:56:53;;;;;;;5.30;2.20;;;;;;;;;;4996266;28;20464;-49
2023/07/15 02:59:19;;;;;;;3.75;2.47;;;;;;;;;;4993863;28;20030;-50
2023/07/15 03:01:44;;;;;;;5.03;2.60;;;;;;;;;;4985330;28;20046;-49
2023/07/15 03:04:10;;;;;;;3.05;2.53;;;;;;;;;;4988780;28;20404;-52
2023/07/15 03:06:35;;;;;;;3.63;2.60;;;;;;;;;;4990152;28;20018;-48
2023/07/15 03:09:01;;;;;;;7.25;2.50;;;;;;;;;;4990038;28;20117;-50
2023/07/15 03:11:26;;;;;;;7.68;2.72;;;;;;;;;;4990425;28;20030;-48
2023/07/15 03:13:51;;;;;;;7.20;2.60;;;;;;;;;;4994895;28;20519;-50
2023/07/15 03:16:21;;;;;;;3.35;2.33;;;;;;;;;;4976019;28;20086;-50
2023/07/15 03:18:46;;;;;;;10.93;2.42;;;;;;;;;;4980379;28;20047;-51
2023/07/15 03:21:12;;;;;;;4.13;2.50;;;;;;;;;;4990261;28;20033;-51
2023/07/15 03:23:37;;;;;;;5.32;2.53;;;;;;;;;;4995099;28;20070;-50
2023/07/15 03:26:02;;;;;;;6.40;2.33;;;;;;;;;;4992984;28;20026;-52
2023/07/15 03:28:28;;;;;;;4.10;2.30;;;;;;;;;;5002474;28;20058;-50
2023/07/15 03:30:53;;;;;;;6.47;2.78;;;;;;;;;;4995654;28;20034;-52
2023/07/15 03:33:19;;;;;;;5.07;2.45;;;;;;;;;;4995592;28;20041;-51
2023/07/15 03:35:45;;;;;;;3.78;2.42;;;;;;;;;;4992769;28;20127;-52
2023/07/15 03:38:10;;;;;;;6.60;2.47;;;;;;;;;;4993761;28;20496;-48
2023/07/15 03:40:35;;;;;;;4.40;2.90;;;;;;;;;;4988517;28;20037;-53
2023/07/15 03:43:01;;;;;;;5.70;2.58;;;;;;;;;;4977474;28;20054;-53
2023/07/15 03:45:27;;;;;;;6.22;3.08;;;;;;;;;;4984634;28;20022;-50
2023/07/15 03:47:53;;;;;;;8.10;2.90;;;;;;;;;;4974850;28;20030;-49
2023/07/15 03:50:18;;;;;;;5.18;2.42;;;;;;;;;;4985684;28;20097;-52
2023/07/15 03:52:44;;;;;;;7.22;2.70;;;;;;;;;;4986330;28;20042;-49
2023/07/15 03:55:09;;;;;;;7.93;2.70;;;;;;;;;;4982269;28;20052;-50
2023/07/15 03:57:34;;;;;;;3.75;2.20;;;;;;;;;;4993507;28;20034;-51
2023/07/15 04:00:00;;;;;;;7.45;2.50;;;;;;;;;;4993281;28;20029;-51
2023/07/15 04:02:27;;;;;;;5.72;2.80;;;;;;;;;;4996756;28;20030;-50
2023/07/15 04:04:52;;;;;;;6.55;2.40;;;;;;;;;;4999580;28;20034;-51
2023/07/15 04:07:18;;;;;;;8.25;2.53;;;;;;;;;;4992388;28;20037;-51
2023/07/15 04:09:44;;;;;;;6.80;2.47;;;;;;;;;;4992181;28;20422;-52
2023/07/15 04:12:10;;;;;;;3.90;2.53;;;;;;;;;;4991000;28;20073;-49
2023/07/15 04:14:36;;;;;;;7.50;2.80;;;;;;;;;;4994915;28;20436;-51
2023/07/15 04:17:01;;;;;;;6.55;2.38;;;;;;;;;;4993538;28;20088;-52
2023/07/15 04:19:27;;;;;;;7.63;2.50;;;;;;;;;;4997840;28;20046;-48
2023/07/15 04:21:52;;;;;;;5.72;2.55;;;;;;;;;;4994298;28;20580;-49
2023/07/15 04:24:17;;;;;;;5.88;2.60;;;;;;;;;;4996718;28;20519;-50
2023/07/15 04:26:43;;;;;;;5.85;2.50;;;;;;;;;;4993813;28;20372;-52
2023/07/15 04:29:08;;;;;;;4.70;2.30;;;;;;;;;;4994038;28;20369;-52
2023/07/15 04:31:35;;;;;;;3.97;2.38;;;;;;;;;;4989947;28;20027;-52
2023/07/15 04:34:01;;;;;;;2.97;2.28;;;;;;;;;;4992988;28;20043;-45
2023/07/15 04:36:26;;;;;;;6.68;2.70;;;;;;;;;;4996972;28;20507;-48
2023/07/15 04:38:52;;;;;;;3.80;2.40;;;;;;;;;;4991962;28;20563;-49
2023/07/15 04:41:17;;;;;;;5.93;2.58;;;;;;;;;;4993058;28;20501;-49
2023/07/15 04:43:43;;;;;;;5.55;2.53;;;;;;;;;;4990874;28;20053;-49
2023/07/15 04:46:09;;;;;;;4.50;2.30;;;;;;;;;;4994350;28;20082;-49
2023/07/15 04:48:34;;;;;;;6.70;2.53;;;;;;;;;;4990853;28;20038;-48
2023/07/15 04:51:00;;;;;;;7.85;2.08;;;;;;;;;;4993404;28;20030;-50
2023/07/15 04:53:25;;;;;;;7.10;2.50;;;;;;;;;;4973486;28;20038;-54
2023/07/15 04:55:51;;;;;;;6.45;2.33;;;;;;;;;;4996668;28;20038;-54
2023/07/15 04:58:18;;;;;;;11.07;2.47;;;;;;;;;;4985889;28;20070;-51
2023/07/15 05:00:44;;;;;;;6.70;2.70;;;;;;;;;;4992830;28;20027;-53
2023/07/15 05:03:09;;;;;;;5.68;2.45;;;;;;;;;;4987912;28;20622;-51
2023/07/15 05:05:35;;;;;;;5.75;2.67;;;;;;;;;;4991622;28;20069;-50
2023/07/15 05:08:09;;;;;;;6.30;2.42;;;;;;;;;;4997528;28;20050;-47
2023/07/15 05:10:35;;;;;;;11.25;3.83;;;;;;;;;;4993107;28;20034;-51
2023/07/15 05:13:00;;;;;;;7.00;2.28;;;;;;;;;;4995295;28;20050;-51
2023/07/15 05:15:26;;;;;;;6.88;2.63;;;;;;;;;;4997016;28;20026;-52
2023/07/15 05:17:51;;;;;;;5.43;2.35;;;;;;;;;;4975682;28;20034;-51
2023/07/15 05:20:18;;;;;;;3.17;2.40;;;;;;;;;;4989693;28;20030;-48
2023/07/15 05:22:44;;;;;;;2.85;2.38;;;;;;;;;;4996756;28;20038;-49
2023/07/15 05:25:09;;;;;;;5.28;2.10;;;;;;;;;;4987311;28;20045;-51
2023/07/15 05:27:35;;;;;;;5.97;2.10;;;;;;;;;;4990348;28;20060;-48
2023/07/15 05:30:00;;;;;;;3.50;2.17;;;;;;;;;;4994613;28;20038;-52
2023/07/15 05:32:25;;;;;;;4.15;2.40;;;;;;;;;;4984990;28;20113;-50
2023/07/15 05:34:51;;;;;;;4.72;2.63;;;;;;;;;;4996209;28;20058;-48
2023/07/15 05:37:16;;;;;;;3.33;2.10;;;;;;;;;;4990375;28;20034;-51
2023/07/15 05:39:44;;;;;;;9.02;2.35;;;;;;;;;;4996695;28;20022;-49
2023/07/15 05:42:10;;;;;;;7.15;2.13;;;;;;;;;;4984170;28;20073;-50
2023/07/15 05:44:35;;;;;;;5.03;2.08;;;;;;;;;;4975620;28;20043;-50
2023/07/15 05:47:01;;;;;;;8.45;2.30;;;;;;;;;;4988998;28;20027;-50
2023/07/15 05:49:26;;;;;;;4.93;2.60;;;;;;;;;;4995834;28;20038;-49
2023/07/15 05:51:51;;;;;;;3.65;2.33;;;;;;;;;;4988731;28;20026;-49
2023/07/15 05:54:17;;;;;;;4.07;2.22;;;;;;;;;;4990161;28;20030;-51
2023/07/15 05:56:42;;;;;;;4.18;2.35;;;;;;;;;;4994388;28;20025;-48
2023/07/15 05:59:08;;;;;;;3.35;2.47;;;;;;;;;;4995693;28;20038;-50
2023/07/15 06:01:33;;;;;;;4.40;2.10;;;;;;;;;;4989744;28;20053;-50
2023/07/15 06:03:59;;;;;;;6.88;2.58;;;;;;;;;;4993627;28;20117;-53
2023/07/15 06:06:24;;;;;;;7.53;2.60;;;;;;;;;;4995154;28;20105;-51
2023/07/15 06:08:51;;;;;;;8.68;2.45;;;;;;;;;;4993970;28;20052;-52
2023/07/15 06:11:17;;;;;;;6.07;2.70;;;;;;;;;;4992546;28;20026;-49
2023/07/15 06:13:42;;;;;;;4.50;2.38;;;;;;;;;;4995009;28;20157;-52
2023/07/15 06:16:08;;;;;;;5.20;2.40;;;;;;;;;;4991905;28;20161;-51
2023/07/15 06:18:33;;;;;;;8.55;2.75;;;;;;;;;;4994269;28;20046;-52
2023/07/15 06:20:58;;;;;;;3.63;2.13;;;;;;;;;;4988860;28;20038;-49
2023/07/15 06:23:24;;;;;;;4.55;2.67;;;;;;;;;;4984660;28;20046;-52
2023/07/15 06:25:49;;;;;;;5.22;2.60;;;;;;;;;;4984479;28;20023;-48
2023/07/15 06:28:15;;;;;;;5.65;2.42;;;;;;;;;;4992166;28;20702;-50
2023/07/15 06:30:40;;;;;;;3.33;2.20;;;;;;;;;;4995047;28;20037;-48
2023/07/15 06:33:06;;;;;;;11.75;2.72;;;;;;;;;;4982532;28;20096;-51
2023/07/15 06:35:32;;;;;;;3.42;2.50;;;;;;;;;;4993316;28;20059;-50
2023/07/15 06:37:57;;;;;;;10.50;2.97;;;;;;;;;;4994280;28;20460;-51
2023/07/15 06:40:23;;;;;;;8.68;2.65;;;;;;;;;;4988916;28;20022;-52
2023/07/15 06:42:49;;;;;;;8.98;3.08;;;;;;;;;;4993636;28;20042;-53
2023/07/15 06:45:19;;;;;;;3.10;2.38;;;;;;;;;;4985994;28;20026;-51
2023/07/15 06:47:44;;;;;;;4.25;2.83;;;;;;;;;;4993428;28;20484;-51
2023/07/15 06:50:10;;;;;;;7.43;2.85;;;;;;;;;;4974427;28;20073;-51
2023/07/15 06:52:35;;;;;;;8.00;2.50;;;;;;;;;;4987898;28;20042;-51
2023/07/15 06:55:00;;;;;;;9.05;3.20;;;;;;;;;;4973506;28;20030;-50
2023/07/15 06:57:28;;;;;;;3.97;3.00;;;;;;;;;;4996076;28;20473;-53
2023/07/15 06:59:53;;;;;;;6.20;2.70;;;;;;;;;;4987686;28;20027;-48
2023/07/15 07:02:19;;;;;;;4.50;3.03;;;;;;;;;;4983362;28;20873;-53
2023/07/15 07:04:44;;;;;;;4.03;2.75;;;;;;;;;;4987705;28;20066;-48
2023/07/15 07:07:09;;;;;;;3.08;2.40;;;;;;;;;;4993085;28;20154;-50
2023/07/15 07:09:35;;;;;;;6.75;2.63;;;;;;;;;;4994673;28;20184;-51
2023/07/15 07:12:00;;;;;;;3.67;2.83;;;;;;;;;;4992657;28;20030;-52
2023/07/15 07:14:26;;;;;;;6.65;2.63;;;;;;;;;;4985600;28;20441;-50
2023/07/15 07:16:51;;;;;;;5.20;2.80;;;;;;;;;;4989390;28;20034;-49
2023/07/15 07:19:16;;;;;;;7.10;3.15;;;;;;;;;;4989994;28;20084;-45
2023/07/15 07:21:42;;;;;;;10.30;2.90;;;;;;;;;;4994081;28;20057;-50
2023/07/15 07:24:10;;;;;;;7.20;2.97;;;;;;;;;;4992370;28;20400;-49
2023/07/15 07:26:35;;;;;;;5.70;2.70;;;;;;;;;;4988315;28;20078;-52
2023/07/15 07:29:01;;;;;;;6.10;3.10;;;;;;;;;;4989980;28;20465;-51
2023/07/15 07:31:26;;;;;;;9.90;2.80;;;;;;;;;;4993110;28;20065;-49
2023/07/15 07:33:52;;;;;;;10.85;2.95;;;;;;;;;;4995478;28;20571;-49
2023/07/15 07:36:17;;;;;;;6.60;2.78;;;;;;;;;;4987325;28;20035;-52
2023/07/15 07:38:44;;;;;;;11.18;3.10;;;;;;;;;;4996023;28;20042;-48
2023/07/15 07:41:12;;;;;;;5.90;2.65;;;;;;;;;;4994770;28;20050;-49
2023/07/15 07:43:39;;;;;;;5.80;2.78;;;;;;;;;;4988757;28;20045;-51
2023/07/15 07:46:07;;;;;;;8.73;2.95;;;;;;;;;;4987041;28;20125;-49
2023/07/15 07:48:33;;;;;;;13.00;3.40;;;;;;;;;;4994204;28;20038;-49
2023/07/15 07:50:59;;;;;;;9.07;2.95;;;;;;;;;;4993270;28;20033;-51
2023/07/15 07:53:25;;;;;;;11.88;2.90;;;;;;;;;;4995933;28;20042;-49
2023/07/15 07:55:51;;;;;;;12.43;2.83;;;;;;;;;;4987319;28;20039;-48
2023/07/15 07:58:17;;;;;;;7.53;3.45;;;;;;;;;;4996970;28;20548;-47
2023/07/15 08:00:43;;;;;;;6.75;2.53;;;;;;;;;;4991771;28;20073;-48
2023/07/15 08:03:09;;;;;;;4.20;2.60;;;;;;;;;;4986872;28;20061;-49
2023/07/15 08:05:34;;;;;;;9.88;2.70;;;;;;;;;;4976927;28;20019;-48
2023/07/15 08:07:59;;;;;;;4.97;2.85;;;;;;;;;;4977934;28;20133;-52
2023/07/15 08:10:25;;;;;;;6.20;2.47;;;;;;;;;;4975308;28;20495;-50
2023/07/15 08:12:50;;;;;;;6.47;2.78;;;;;;;;;;4958303;28;20557;-51
2023/07/15 08:15:16;;;;;;;7.18;2.85;;;;;;;;;;4972549;28;20035;-48
2023/07/15 08:17:41;;;;;;;4.30;2.50;;;;;;;;;;4971258;28;20042;-47
2023/07/15 08:20:10;;;;;;;6.82;3.00;;;;;;;;;;4957719;28;20047;-52
2023/07/15 08:22:35;;;;;;;6.47;2.70;;;;;;;;;;4973346;28;20129;-48
2023/07/15 08:25:01;;;;;;;5.75;2.67;;;;;;;;;;4975214;28;20059;-51
2023/07/15 08:27:26;;;;;;;11.18;2.72;;;;;;;;;;4960302;28;20027;-49
2023/07/15 08:29:52;;;;;;;2.70;2.17;;;;;;;;;;4975524;28;20058;-50
2023/07/15 08:32:17;;;;;;;7.35;2.55;;;;;;;;;;4977348;28;20023;-51
2023/07/15 08:34:59;;;;;;;5.68;2.25;;;;;;;;;;4974526;28;20609;-48
2023/07/15 08:37:26;;;;;;;6.80;2.17;;;;;;;;;;4977695;28;20505;-51
2023/07/15 08:39:51;;;;;;;3.83;1.92;;;;;;;;;;4991529;28;20125;-50
2023/07/15 08:42:21;;;;;;;4.85;2.22;;;;;;;;;;4993017;28;20058;-48
2023/07/15 08:44:50;;;;;;;7.70;2.40;;;;;;;;;;4993003;28;20032;-49
2023/07/15 08:47:19;;;;;;;4.53;2.20;;;;;;;;;;4996864;28;20022;-48
2023/07/15 08:49:45;;;;;;;8.88;2.50;;;;;;;;;;4995851;28;20088;-49
2023/07/15 08:52:11;;;;;;;10.10;2.67;;;;;;;;;;4996037;28;20125;-51
2023/07/15 08:54:39;;;;;;;3.97;2.50;;;;;;;;;;4994896;28;20117;-49
2023/07/15 08:57:06;;;;;;;5.45;2.30;;;;;;;;;;4995595;28;20439;-53
2023/07/15 08:59:32;;;;;;;9.02;2.30;;;;;;;;;;4991305;28;20073;-47
2023/07/15 09:01:59;;;;;;;7.53;2.55;;;;;;;;;;4996199;28;20840;-52
2023/07/15 09:04:25;;;;;;;3.53;2.15;;;;;;;;;;4995649;28;20387;-51
2023/07/15 09:06:52;;;;;;;6.20;2.42;;;;;;;;;;4996167;28;20030;-49
2023/07/15 09:09:17;;;;;;;7.28;2.20;;;;;;;;;;4972979;28;20034;-50
2023/07/15 09:11:43;;;;;;;6.22;2.60;;;;;;;;;;4988891;28;20062;-53
2023/07/15 09:14:14;;;;;;;7.32;2.58;;;;;;;;;;4993546;28;20038;-46
2023/07/15 09:16:39;;;;;;;9.18;2.78;;;;;;;;;;4993126;28;20555;-50
2023/07/15 09:19:05;;;;;;;4.80;2.45;;;;;;;;;;4985235;28;20904;-46
2023/07/15 09:21:30;;;;;;;8.77;2.60;;;;;;;;;;4994588;28;20030;-50
2023/07/15 09:24:00;;;;;;;12.27;2.92;;;;;;;;;;4988064;28;20043;-46
2023/07/15 09:26:26;;;;;;;7.80;2.60;;;;;;;;;;4992673;28;20030;-46
2023/07/15 09:28:51;;;;;;;12.98;2.70;;;;;;;;;;4991810;28;20031;-48
2023/07/15 09:31:24;;;;;;;4.78;2.63;;;;;;;;;;4991654;28;20054;-49
2023/07/15 09:33:49;;;;;;;7.05;3.20;;;;;;;;;;4991817;28;20042;-50
2023/07/15 09:36:15;;;;;;;8.95;2.70;;;;;;;;;;4993963;28;20045;-51
2023/07/15 09:38:41;;;;;;;7.10;2.88;;;;;;;;;;4990441;28;20467;-49
2023/07/15 09:41:09;;;;;;;6.30;2.80;;;;;;;;;;4996872;28;20109;-48
2023/07/15 09:43:45;;;;;;;7.55;2.90;;;;;;;;;;4987131;28;20528;-46
2023/07/15 09:46:14;;;;;;;5.10;2.55;;;;;;;;;;4990874;28;20059;-51
2023/07/15 09:48:41;;;;;;;10.40;2.60;;;;;;;;;;4993691;28;20433;-48
2023/07/15 09:51:07;;;;;;;6.93;3.00;;;;;;;;;;4993653;28;20053;-48
2023/07/15 09:53:32;;;;;;;7.20;3.10;;;;;;;;;;4995769;28;20130;-47
2023/07/15 09:56:00;;;;;;;5.97;3.17;;;;;;;;;;4993365;28;20054;-50
2023/07/15 09:58:28;;;;;;;10.25;3.22;;;;;;;;;;4995797;28;20038;-47
2023/07/15 10:01:02;;;;;;;8.77;3.05;;;;;;;;;;4996767;28;20479;-47
2023/07/15 10:03:41;;;;;;;7.15;3.03;;;;;;;;;;4994070;28;20046;-49
2023/07/15 10:06:07;;;;;;;11.20;3.33;;;;;;;;;;4995100;28;20030;-50
2023/07/15 10:08:34;;;;;;;11.95;3.10;;;;;;;;;;4993643;28;20610;-47
2023/07/15 10:11:00;;;;;;;7.53;3.33;;;;;;;;;;4994954;28;20137;-50
2023/07/15 10:13:27;;;;;;;4.93;2.90;;;;;;;;;;4989367;28;20111;-48
2023/07/15 10:15:52;;;;;;;8.45;2.78;;;;;;;;;;4990806;28;20033;-52
2023/07/15 10:18:18;;;;;;;10.20;3.13;;;;;;;;;;4973913;28;20121;-48
2023/07/15 10:20:54;;;;;;;10.40;3.13;;;;;;;;;;4994598;28;20073;-51
2023/07/15 10:23:27;;;;;;;10.88;3.05;;;;;;;;;;4992233;28;20459;-49
2023/07/15 10:26:05;;;;;;;9.32;3.50;;;;;;;;;;4988269;28;20022;-51
2023/07/15 10:28:41;;;;;;;14.57;3.58;;;;;;;;;;4984274;28;20113;-51
2023/07/15 10:31:12;;;;;;;7.40;3.05;;;;;;;;;;4995214;28;20126;-49
2023/07/15 10:33:58;;;;;;;14.88;3.45;;;;;;;;;;4989210;28;20034;-48
2023/07/15 10:36:40;;;;;;;9.35;3.40;;;;;;;;;;4991803;28;20057;-49
2023/07/15 10:39:11;;;;;;;13.70;3.95;;;;;;;;;;4984844;28;20097;-48
2023/07/15 10:41:40;;;;;;;6.22;3.10;;;;;;;;;;4967586;28;20031;-49
2023/07/15 10:44:25;;;;;;;9.23;2.97;;;;;;;;;;4985771;28;20042;-50
2023/07/15 10:47:14;;;;;;;11.32;3.92;;;;;;;;;;4986143;28;20031;-48
2023/07/15 10:49:40;;;;;;;10.52;3.25;;;;;;;;;;5010967;28;20054;-52
2023/07/15 10:52:06;;;;;;;5.68;3.15;;;;;;;;;;4991745;28;20014;-50
2023/07/15 10:54:36;;;;;;;10.98;3.10;;;;;;;;;;4986235;28;20100;-54
2023/07/15 10:57:12;;;;;;;4.53;2.95;;;;;;;;;;4996465;28;20018;-52
2023/07/15 10:59:40;;;;;;;13.05;3.63;;;;;;;;;;4992103;28;20035;-53
2023/07/15 11:02:05;;;;;;;9.95;3.38;;;;;;;;;;4990072;28;20022;-50
2023/07/15 11:04:32;;;;;;;8.98;3.30;;;;;;;;;;4986756;28;20045;-48
2023/07/15 11:07:00;;;;;;;8.57;3.50;;;;;;;;;;4986686;28;20030;-49
2023/07/15 11:09:25;;;;;;;12.85;3.33;;;;;;;;;;4997998;28;20033;-51
2023/07/15 11:11:51;;;;;;;8.38;3.70;;;;;;;;;;4994112;28;20027;-52
2023/07/15 11:14:27;;;;;;;11.48;3.78;;;;;;;;;;4991538;28;20188;-51
2023/07/15 11:16:58;;;;;;;9.10;3.47;;;;;;;;;;4996694;28;20125;-51
2023/07/15 11:19:25;;;;;;;7.63;3.83;;;;;;;;;;4987515;28;20038;-50
2023/07/15 11:21:52;;;;;;;7.25;3.20;;;;;;;;;;4996814;28;20038;-49
2023/07/15 11:24:18;;;;;;;8.05;3.28;;;;;;;;;;4989708;28;20045;-51
2023/07/15 11:26:44;;;;;;;11.18;3.65;;;;;;;;;;4994794;28;20888;-48
2023/07/15 11:29:24;;;;;;;13.52;4.00;;;;;;;;;;4994760;28;20723;-49
2023/07/15 11:31:57;;;;;;;10.30;3.88;;;;;;;;;;4988956;28;20037;-52
2023/07/15 11:34:26;;;;;;;15.25;3.33;;;;;;;;;;4995404;28;20047;-51
2023/07/15 11:36:53;;;;;;;13.40;3.50;;;;;;;;;;4993693;28;20031;-49
2023/07/15 11:39:19;;;;;;;9.13;3.72;;;;;;;;;;4998860;28;21245;-52
2023/07/15 11:41:45;;;;;;;8.13;3.30;;;;;;;;;;4996975;28;20030;-51
2023/07/15 11:44:13;;;;;;;6.20;2.95;;;;;;;;;;4997301;28;20046;-53
2023/07/15 11:46:40;;;;;;;10.48;4.00;;;;;;;;;;4982178;28;20030;-52
2023/07/15 11:49:06;;;;;;;10.48;4.15;;;;;;;;;;4995569;28;20096;-49
2023/07/15 11:51:34;;;;;;;8.43;3.83;;;;;;;;;;4987232;28;20015;-51
2023/07/15 11:54:00;;;;;;;7.20;3.80;;;;;;;;;;4994979;28;20121;-53
2023/07/15 11:56:42;;;;;;;40.55;4.03;;;;;;;;;;4998993;28;20073;-49
2023/07/15 11:59:09;;;;;;;22.45;3.53;;;;;;;;;;4996291;28;20563;-53
2023/07/15 12:01:39;;;;;;;6.38;3.42;;;;;;;;;;4987087;28;20035;-50
2023/07/15 12:04:15;;;;;;;7.40;3.30;;;;;;;;;;4994647;28;20062;-51
2023/07/15 12:06:52;;;;;;;5.13;3.20;;;;;;;;;;4993588;28;20036;-51
2023/07/15 12:09:21;;;;;;;8.57;2.92;;;;;;;;;;4998642;28;20675;-53
2023/07/15 12:11:48;;;;;;;9.38;3.50;;;;;;;;;;4994507;28;20050;-51
2023/07/15 12:14:15;;;;;;;7.50;3.65;;;;;;;;;;4992880;28;20094;-50
2023/07/15 12:16:42;;;;;;;12.63;3.58;;;;;;;;;;4995138;28;20480;-54
2023/07/15 12:19:12;;;;;;;6.82;3.58;;;;;;;;;;4977708;28;20682;-52
2023/07/15 12:21:38;;;;;;;8.77;3.70;;;;;;;;;;4976964;28;20042;-52
2023/07/15 12:24:04;;;;;;;9.70;3.63;;;;;;;;;;4977439;28;20100;-47
2023/07/15 12:26:30;;;;;;;7.43;3.67;;;;;;;;;;4979050;28;20031;-51
2023/07/15 12:28:57;;;;;;;10.27;3.35;;;;;;;;;;4974481;28;20444;-53
2023/07/15 12:31:22;;;;;;;6.45;3.42;;;;;;;;;;4976737;28;20022;-52
2023/07/15 12:33:47;;;;;;;13.52;3.88;;;;;;;;;;4971451;28;20047;-49
2023/07/15 12:36:16;;;;;;;9.48;3.20;;;;;;;;;;4975560;28;20493;-54
2023/07/15 12:38:41;;;;;;;7.68;3.55;;;;;;;;;;4968236;28;20070;-49
2023/07/15 12:41:07;;;;;;;8.95;3.42;;;;;;;;;;4971432;28;20034;-53
2023/07/15 12:43:33;;;;;;;9.38;3.80;;;;;;;;;;4976900;28;20117;-52
2023/07/15 12:46:00;;;;;;;9.77;3.95;;;;;;;;;;4961319;28;20025;-51
2023/07/15 12:48:25;;;;;;;9.68;3.97;;;;;;;;;;4973189;28;20855;-50
2023/07/15 12:50:51;;;;;;;6.65;3.70;;;;;;;;;;4975821;28;20472;-53
2023/07/15 12:53:17;;;;;;;11.57;3.40;;;;;;;;;;4983370;28;20050;-50
2023/07/15 12:55:43;;;;;;;7.28;3.45;;;;;;;;;;5013359;28;20022;-54
2023/07/15 12:58:10;;;;;;;13.25;4.43;;;;;;;;;;4983207;28;20035;-52
2023/07/15 13:00:36;;;;;;;8.02;3.42;;;;;;;;;;4996094;28;20056;-48
2023/07/15 13:03:02;;;;;;;10.38;3.63;;;;;;;;;;4996498;28;20121;-51
2023/07/15 13:05:27;;;;;;;8.23;3.90;;;;;;;;;;4998027;28;20029;-51
2023/07/15 13:07:53;;;;;;;13.75;4.07;;;;;;;;;;4997601;28;20030;-54
2023/07/15 13:10:18;;;;;;;10.95;3.70;;;;;;;;;;4987745;28;20026;-50
2023/07/15 13:12:43;;;;;;;9.40;3.70;;;;;;;;;;4995728;28;20046;-55
2023/07/15 13:15:09;;;;;;;7.95;3.83;;;;;;;;;;4990714;28;20164;-52
2023/07/15 13:17:35;;;;;;;8.95;3.92;;;;;;;;;;4988617;28;20037;-51
2023/07/15 13:20:00;;;;;;;13.02;3.53;;;;;;;;;;4995830;28;20424;-50
2023/07/15 13:22:26;;;;;;;10.40;4.20;;;;;;;;;;4995599;28;20495;-54
2023/07/15 13:24:51;;;;;;;8.10;3.55;;;;;;;;;;4994533;28;20034;-52
2023/07/15 13:27:17;;;;;;;12.73;3.30;;;;;;;;;;4989142;28;20042;-50
2023/07/15 13:29:43;;;;;;;7.03;3.17;;;;;;;;;;4993211;28;20025;-49
2023/07/15 13:32:08;;;;;;;11.82;3.45;;;;;;;;;;4994439;28;20105;-54
2023/07/15 13:34:33;;;;;;;9.35;3.60;;;;;;;;;;4991144;28;20098;-54
2023/07/15 13:36:59;;;;;;;6.95;3.33;;;;;;;;;;4991567;28;20076;-51
2023/07/15 13:39:37;;;;;;;11.95;3.42;;;;;;;;;;4989568;28;20080;-53
2023/07/15 13:42:09;;;;;;;7.05;3.35;;;;;;;;;;4995346;28;20027;-53
2023/07/15 13:44:35;;;;;;;5.88;3.38;;;;;;;;;;4983760;28;20039;-55
2023/07/15 13:47:01;;;;;;;5.50;2.95;;;;;;;;;;4995089;28;20093;-53
2023/07/15 13:49:27;;;;;;;6.05;3.63;;;;;;;;;;4993882;28;20042;-53
2023/07/15 13:51:53;;;;;;;5.22;3.22;;;;;;;;;;4971414;28;20700;-53
2023/07/15 13:54:18;;;;;;;10.65;2.97;;;;;;;;;;4994246;28;20031;-51
2023/07/15 13:56:44;;;;;;;14.25;3.50;;;;;;;;;;4989750;28;20507;-50
2023/07/15 13:59:09;;;;;;;10.43;3.17;;;;;;;;;;4975594;28;20030;-52
2023/07/15 14:01:34;;;;;;;11.43;3.45;;;;;;;;;;4992258;28;20042;-53
2023/07/15 14:04:00;;;;;;;6.30;3.13;;;;;;;;;;4991575;28;20046;-54
2023/07/15 14:06:25;;;;;;;10.68;3.40;;;;;;;;;;4987455;28;20030;-52
2023/07/15 14:08:51;;;;;;;7.60;3.20;;;;;;;;;;4984826;28;20058;-52
2023/07/15 14:11:16;;;;;;;6.88;3.17;;;;;;;;;;4990775;28;20030;-50
2023/07/15 14:13:41;;;;;;;4.18;2.70;;;;;;;;;;4994824;28;20038;-52
2023/07/15 14:16:07;;;;;;;16.67;3.67;;;;;;;;;;4994590;28;20030;-53
2023/07/15 14:18:32;;;;;;;6.03;3.10;;;;;;;;;;4987794;28;20038;-52
2023/07/15 14:20:58;;;;;;;11.80;3.80;;;;;;;;;;4982744;28;20033;-51
2023/07/15 14:23:23;;;;;;;8.50;3.10;;;;;;;;;;4975898;28;20038;-54
2023/07/15 14:25:48;;;;;;;14.68;3.50;;;;;;;;;;4973766;28;20050;-52
2023/07/15 14:28:14;;;;;;;15.15;3.60;;;;;;;;;;4984078;28;20046;-54
2023/07/15 14:30:39;;;;;;;8.15;2.95;;;;;;;;;;4995431;28;20023;-53
2023/07/15 14:33:05;;;;;;;5.35;2.92;;;;;;;;;;4988220;28;20041;-53
2023/07/15 14:35:30;;;;;;;8.30;3.47;;;;;;;;;;4990427;28;20073;-55
2023/07/15 14:37:56;;;;;;;7.35;3.10;;;;;;;;;;4988399;28;20077;-50